Terminal Aerodrome Forecast
Issued by NWS

Current Version | Previous Version | Text Only | Print | Product List | Glossary On
Versions: 1 2 3 4 5 6 7 8 9 10 11 12 13
000
FTUS44 KCRP 042325
TAFALI
TAF
KALI 042325Z 0500/0524 13016G22KT P6SM SCT040 SCT050
     FM050100 13012KT P6SM SCT015 BKN200
     FM050700 14007KT P6SM BKN015
     FM051400 15014G19KT P6SM BKN025
     FM051800 13017G28KT P6SM SCT025 OVC040=

USA.gov is the U.S. government's official web portal to all federal, state and local government web resources and services.